Terminal Aerodrome Forecast
Issued by NWS

Current Version | Previous Version | Graphics & Text | Print | Product List | Glossary On
Versions: 1 2 3 4 5 6 7 8 9 10 11 12 13 14 15 16 17 18 19 20 21 22 23 24 25 26
412
FTUS41 KPBZ 232102 AAB
TAFHLG
TAF AMD
KHLG 232102Z 2321/2418 05010G18KT 5SM -RA BR OVC010
     FM240100 01010KT 6SM -RA BR OVC008
     FM240800 VRB05KT P6SM OVC008
     FM241200 31008KT P6SM OVC015=

USA.gov is the U.S. government's official web portal to all federal, state and local government web resources and services.